sensor_id;sensor_type;location;lat;lon;timestamp;pressure;altitude;pressure_sealevel;temperature;humidity
43420;BME280;29017;51.514;-0.178;2024-03-07T00:01:20;101945.00;;;9.35;94.66
43420;BME280;29017;51.514;-0.178;2024-03-07T00:03:47;101938.22;;;9.32;94.73
43420;BME280;29017;51.514;-0.178;2024-03-07T00:06:14;101945.50;;;9.29;95.58
43420;BME280;29017;51.514;-0.178;2024-03-07T00:08:41;101945.50;;;9.29;96.01
43420;BME280;29017;51.514;-0.178;2024-03-07T00:11:08;101943.94;;;9.26;96.28
43420;BME280;29017;51.514;-0.178;2024-03-07T00:13:36;101950.59;;;9.30;96.90
43420;BME280;29017;51.514;-0.178;2024-03-07T00:16:02;101941.88;;;9.30;96.65
43420;BME280;29017;51.514;-0.178;2024-03-07T00:18:31;101937.84;;;9.26;96.80
43420;BME280;29017;51.514;-0.178;2024-03-07T00:21:04;101933.31;;;9.28;97.82
43420;BME280;29017;51.514;-0.178;2024-03-07T00:23:31;101942.03;;;9.28;98.16
43420;BME280;29017;51.514;-0.178;2024-03-07T00:25:58;101940.00;;;9.32;98.25
43420;BME280;29017;51.514;-0.178;2024-03-07T00:28:25;101936.44;;;9.33;98.35
43420;BME280;29017;51.514;-0.178;2024-03-07T00:31:00;101939.53;;;9.38;98.89
43420;BME280;29017;51.514;-0.178;2024-03-07T00:33:27;101942.06;;;9.39;98.57
43420;BME280;29017;51.514;-0.178;2024-03-07T00:36:12;101940.97;;;9.42;98.63
43420;BME280;29017;51.514;-0.178;2024-03-07T00:38:40;101935.47;;;9.45;98.82
43420;BME280;29017;51.514;-0.178;2024-03-07T00:41:11;101938.81;;;9.47;98.61
43420;BME280;29017;51.514;-0.178;2024-03-07T00:43:38;101934.16;;;9.51;98.20
43420;BME280;29017;51.514;-0.178;2024-03-07T00:46:05;101938.81;;;9.47;96.48
43420;BME280;29017;51.514;-0.178;2024-03-07T00:48:37;101929.38;;;9.33;96.81
43420;BME280;29017;51.514;-0.178;2024-03-07T00:51:10;101934.00;;;9.30;96.77
43420;BME280;29017;51.514;-0.178;2024-03-07T00:53:37;101935.00;;;9.29;97.82
43420;BME280;29017;51.514;-0.178;2024-03-07T00:56:04;101936.63;;;9.30;98.15
43420;BME280;29017;51.514;-0.178;2024-03-07T00:58:35;101931.88;;;9.24;98.35
43420;BME280;29017;51.514;-0.178;2024-03-07T01:01:09;101943.09;;;9.26;98.77
43420;BME280;29017;51.514;-0.178;2024-03-07T01:03:38;101937.63;;;9.29;97.88
43420;BME280;29017;51.514;-0.178;2024-03-07T01:06:05;101939.50;;;9.27;96.75
43420;BME280;29017;51.514;-0.178;2024-03-07T01:08:32;101938.09;;;9.23;97.06
43420;BME280;29017;51.514;-0.178;2024-03-07T01:11:04;101938.19;;;9.21;97.20
43420;BME280;29017;51.514;-0.178;2024-03-07T01:13:40;101934.84;;;9.19;97.57
43420;BME280;29017;51.514;-0.178;2024-03-07T01:16:08;101927.19;;;9.16;97.71
43420;BME280;29017;51.514;-0.178;2024-03-07T01:18:35;101927.09;;;9.18;98.77
43420;BME280;29017;51.514;-0.178;2024-03-07T01:21:02;101926.34;;;9.16;97.96
43420;BME280;29017;51.514;-0.178;2024-03-07T01:23:30;101926.59;;;9.13;97.85
43420;BME280;29017;51.514;-0.178;2024-03-07T01:25:57;101924.91;;;9.12;98.15
43420;BME280;29017;51.514;-0.178;2024-03-07T01:28:25;101929.34;;;9.11;98.39
43420;BME280;29017;51.514;-0.178;2024-03-07T01:30:53;101924.19;;;9.10;99.13
43420;BME280;29017;51.514;-0.178;2024-03-07T01:33:20;101935.53;;;9.10;99.32
43420;BME280;29017;51.514;-0.178;2024-03-07T01:35:47;101924.81;;;9.13;99.05
43420;BME280;29017;51.514;-0.178;2024-03-07T01:38:14;101934.69;;;9.10;98.45
43420;BME280;29017;51.514;-0.178;2024-03-07T01:40:41;101927.53;;;9.12;97.43
43420;BME280;29017;51.514;-0.178;2024-03-07T01:43:09;101917.16;;;9.10;97.65
43420;BME280;29017;51.514;-0.178;2024-03-07T01:45:37;101924.31;;;9.08;97.13
43420;BME280;29017;51.514;-0.178;2024-03-07T01:48:08;101922.88;;;9.04;97.18
43420;BME280;29017;51.514;-0.178;2024-03-07T01:50:36;101918.59;;;9.03;97.51
43420;BME280;29017;51.514;-0.178;2024-03-07T01:53:09;101905.13;;;9.08;98.12
43420;BME280;29017;51.514;-0.178;2024-03-07T01:55:36;101908.34;;;9.11;98.31
43420;BME280;29017;51.514;-0.178;2024-03-07T01:58:04;101908.81;;;9.16;97.63
43420;BME280;29017;51.514;-0.178;2024-03-07T02:00:32;101901.88;;;9.15;97.23
43420;BME280;29017;51.514;-0.178;2024-03-07T02:02:59;101908.13;;;9.14;96.40
43420;BME280;29017;51.514;-0.178;2024-03-07T02:05:26;101898.09;;;9.19;96.14
43420;BME280;29017;51.514;-0.178;2024-03-07T02:07:53;101906.47;;;9.24;97.05
43420;BME280;29017;51.514;-0.178;2024-03-07T02:10:20;101898.09;;;9.19;96.35
43420;BME280;29017;51.514;-0.178;2024-03-07T02:12:47;101896.91;;;9.23;96.84
43420;BME280;29017;51.514;-0.178;2024-03-07T02:15:14;101898.69;;;9.23;96.43
43420;BME280;29017;51.514;-0.178;2024-03-07T02:17:41;101901.22;;;9.24;96.55
43420;BME280;29017;51.514;-0.178;2024-03-07T02:20:09;101889.72;;;9.25;96.47
43420;BME280;29017;51.514;-0.178;2024-03-07T02:22:37;101894.13;;;9.25;96.31
43420;BME280;29017;51.514;-0.178;2024-03-07T02:25:05;101897.75;;;9.24;96.25
43420;BME280;29017;51.514;-0.178;2024-03-07T02:27:32;101887.84;;;9.27;95.24
43420;BME280;29017;51.514;-0.178;2024-03-07T02:30:00;101886.88;;;9.28;95.55
43420;BME280;29017;51.514;-0.178;2024-03-07T02:32:30;101881.00;;;9.25;95.52
43420;BME280;29017;51.514;-0.178;2024-03-07T02:34:59;101881.50;;;9.30;95.41
43420;BME280;29017;51.514;-0.178;2024-03-07T02:37:26;101884.84;;;9.32;95.25
43420;BME280;29017;51.514;-0.178;2024-03-07T02:39:53;101884.13;;;9.30;95.50
43420;BME280;29017;51.514;-0.178;2024-03-07T02:42:20;101876.72;;;9.35;94.91
43420;BME280;29017;51.514;-0.178;2024-03-07T02:44:51;101873.28;;;9.34;94.78
43420;BME280;29017;51.514;-0.178;2024-03-07T02:47:19;101876.59;;;9.36;95.69
43420;BME280;29017;51.514;-0.178;2024-03-07T02:49:46;101890.69;;;9.35;95.54
43420;BME280;29017;51.514;-0.178;2024-03-07T02:52:13;101884.00;;;9.31;94.87
43420;BME280;29017;51.514;-0.178;2024-03-07T02:54:40;101876.97;;;9.32;94.32
43420;BME280;29017;51.514;-0.178;2024-03-07T02:57:07;101875.06;;;9.34;94.55
43420;BME280;29017;51.514;-0.178;2024-03-07T02:59:33;101867.41;;;9.31;94.79
43420;BME280;29017;51.514;-0.178;2024-03-07T03:02:00;101863.72;;;9.33;95.23
43420;BME280;29017;51.514;-0.178;2024-03-07T03:04:27;101859.44;;;9.32;95.35
43420;BME280;29017;51.514;-0.178;2024-03-07T03:06:56;101859.31;;;9.34;95.84
43420;BME280;29017;51.514;-0.178;2024-03-07T03:09:24;101861.59;;;9.38;94.83
43420;BME280;29017;51.514;-0.178;2024-03-07T03:11:51;101860.00;;;9.36;94.67
43420;BME280;29017;51.514;-0.178;2024-03-07T03:14:18;101854.53;;;9.39;94.16
43420;BME280;29017;51.514;-0.178;2024-03-07T03:16:45;101851.28;;;9.35;93.72
43420;BME280;29017;51.514;-0.178;2024-03-07T03:19:14;101850.47;;;9.35;94.06
43420;BME280;29017;51.514;-0.178;2024-03-07T03:21:41;101849.66;;;9.34;94.16
43420;BME280;29017;51.514;-0.178;2024-03-07T03:24:09;101844.41;;;9.34;94.15
43420;BME280;29017;51.514;-0.178;2024-03-07T03:26:36;101842.94;;;9.30;94.34
43420;BME280;29017;51.514;-0.178;2024-03-07T03:29:03;101840.19;;;9.32;94.05
43420;BME280;29017;51.514;-0.178;2024-03-07T03:31:30;101842.94;;;9.30;93.90
43420;BME280;29017;51.514;-0.178;2024-03-07T03:33:57;101838.66;;;9.29;94.04
43420;BME280;29017;51.514;-0.178;2024-03-07T03:36:24;101838.78;;;9.28;93.64
43420;BME280;29017;51.514;-0.178;2024-03-07T03:38:51;101836.84;;;9.30;93.69
43420;BME280;29017;51.514;-0.178;2024-03-07T03:41:19;101836.03;;;9.29;93.76
43420;BME280;29017;51.514;-0.178;2024-03-07T03:43:46;101832.69;;;9.27;93.61
43420;BME280;29017;51.514;-0.178;2024-03-07T03:46:14;101836.03;;;9.29;93.23
43420;BME280;29017;51.514;-0.178;2024-03-07T03:48:41;101828.00;;;9.20;93.23
43420;BME280;29017;51.514;-0.178;2024-03-07T03:51:08;101834.84;;;9.22;93.59
43420;BME280;29017;51.514;-0.178;2024-03-07T03:53:35;101832.31;;;9.21;93.69
43420;BME280;29017;51.514;-0.178;2024-03-07T03:56:03;101833.03;;;9.23;93.47
43420;BME280;29017;51.514;-0.178;2024-03-07T03:58:33;101829.69;;;9.21;93.25
43420;BME280;29017;51.514;-0.178;2024-03-07T04:01:01;101839.97;;;9.24;93.47
43420;BME280;29017;51.514;-0.178;2024-03-07T04:03:27;101831.38;;;9.22;93.09
43420;BME280;29017;51.514;-0.178;2024-03-07T04:05:54;101834.00;;;9.22;92.97
43420;BME280;29017;51.514;-0.178;2024-03-07T04:08:24;101837.22;;;9.25;93.06
43420;BME280;29017;51.514;-0.178;2024-03-07T04:10:51;101840.69;;;9.26;92.85
43420;BME280;29017;51.514;-0.178;2024-03-07T04:13:18;101846.19;;;9.23;92.89
43420;BME280;29017;51.514;-0.178;2024-03-07T04:15:45;101835.41;;;9.26;92.21
43420;BME280;29017;51.514;-0.178;2024-03-07T04:18:11;101842.34;;;9.27;92.18
43420;BME280;29017;51.514;-0.178;2024-03-07T04:20:38;101841.16;;;9.20;92.62
43420;BME280;29017;51.514;-0.178;2024-03-07T04:23:06;101837.81;;;9.18;92.34
43420;BME280;29017;51.514;-0.178;2024-03-07T04:25:36;101830.06;;;9.16;92.97
43420;BME280;29017;51.514;-0.178;2024-03-07T04:28:03;101832.56;;;9.18;91.92
43420;BME280;29017;51.514;-0.178;2024-03-07T04:30:31;101832.69;;;9.16;92.29
43420;BME280;29017;51.514;-0.178;2024-03-07T04:32:58;101831.25;;;9.12;92.20
43420;BME280;29017;51.514;-0.178;2024-03-07T04:35:26;101833.88;;;9.12;92.06
43420;BME280;29017;51.514;-0.178;2024-03-07T04:37:52;101831.13;;;9.14;92.00
43420;BME280;29017;51.514;-0.178;2024-03-07T04:40:19;101831.47;;;9.20;91.80
43420;BME280;29017;51.514;-0.178;2024-03-07T04:42:47;101824.34;;;9.22;92.36
43420;BME280;29017;51.514;-0.178;2024-03-07T04:45:16;101836.72;;;9.20;92.22
43420;BME280;29017;51.514;-0.178;2024-03-07T04:47:44;101829.84;;;9.19;92.95
43420;BME280;29017;51.514;-0.178;2024-03-07T04:50:11;101829.59;;;9.22;92.89
43420;BME280;29017;51.514;-0.178;2024-03-07T04:52:39;101836.25;;;9.26;93.05
43420;BME280;29017;51.514;-0.178;2024-03-07T04:55:06;101828.75;;;9.33;94.28
43420;BME280;29017;51.514;-0.178;2024-03-07T04:57:35;101830.66;;;9.31;93.60
43420;BME280;29017;51.514;-0.178;2024-03-07T05:00:02;101830.28;;;9.35;93.35
43420;BME280;29017;51.514;-0.178;2024-03-07T05:02:29;101825.88;;;9.36;93.58
43420;BME280;29017;51.514;-0.178;2024-03-07T05:04:57;101828.28;;;9.39;93.42
43420;BME280;29017;51.514;-0.178;2024-03-07T05:07:24;101834.38;;;9.39;93.70
43420;BME280;29017;51.514;-0.178;2024-03-07T05:09:51;101828.28;;;9.39;93.43
43420;BME280;29017;51.514;-0.178;2024-03-07T05:12:18;101831.84;;;9.38;93.42
43420;BME280;29017;51.514;-0.178;2024-03-07T05:14:45;101830.91;;;9.39;93.37
43420;BME280;29017;51.514;-0.178;2024-03-07T05:17:12;101830.06;;;9.38;93.45
43420;BME280;29017;51.514;-0.178;2024-03-07T05:19:39;101825.66;;;9.39;93.60
43420;BME280;29017;51.514;-0.178;2024-03-07T05:22:05;101817.78;;;9.39;93.98
43420;BME280;29017;51.514;-0.178;2024-03-07T05:24:32;101821.72;;;9.44;93.54
43420;BME280;29017;51.514;-0.178;2024-03-07T05:27:00;101822.78;;;9.42;93.31
43420;BME280;29017;51.514;-0.178;2024-03-07T05:29:27;101827.06;;;9.43;93.79
43420;BME280;29017;51.514;-0.178;2024-03-07T05:31:54;101819.41;;;9.40;94.06
43420;BME280;29017;51.514;-0.178;2024-03-07T05:34:21;101818.47;;;9.41;94.41
43420;BME280;29017;51.514;-0.178;2024-03-07T05:36:50;101808.44;;;9.46;94.59
43420;BME280;29017;51.514;-0.178;2024-03-07T05:39:18;101812.63;;;9.49;94.29
43420;BME280;29017;51.514;-0.178;2024-03-07T05:41:45;101811.19;;;9.44;93.94
43420;BME280;29017;51.514;-0.178;2024-03-07T05:44:13;101806.53;;;9.48;93.93
43420;BME280;29017;51.514;-0.178;2024-03-07T05:46:40;101815.25;;;9.49;93.95
43420;BME280;29017;51.514;-0.178;2024-03-07T05:49:08;101815.84;;;9.52;93.26
43420;BME280;29017;51.514;-0.178;2024-03-07T05:51:35;101814.16;;;9.51;93.72
43420;BME280;29017;51.514;-0.178;2024-03-07T05:54:02;101808.69;;;9.43;93.70
43420;BME280;29017;51.514;-0.178;2024-03-07T05:56:33;101810.09;;;9.47;93.48
43420;BME280;29017;51.514;-0.178;2024-03-07T05:59:02;101810.94;;;9.48;93.54
43420;BME280;29017;51.514;-0.178;2024-03-07T06:01:33;101809.06;;;9.50;94.04
43420;BME280;29017;51.514;-0.178;2024-03-07T06:04:03;101808.69;;;9.54;92.91
43420;BME280;29017;51.514;-0.178;2024-03-07T06:06:32;101808.69;;;9.54;92.91
43420;BME280;29017;51.514;-0.178;2024-03-07T06:09:00;101814.88;;;9.53;93.23
43420;BME280;29017;51.514;-0.178;2024-03-07T06:11:29;101809.63;;;9.53;93.31
43420;BME280;29017;51.514;-0.178;2024-03-07T06:13:56;101811.66;;;9.50;93.66
43420;BME280;29017;51.514;-0.178;2024-03-07T06:16:24;101804.38;;;9.53;93.85
43420;BME280;29017;51.514;-0.178;2024-03-07T06:18:51;101812.94;;;9.55;93.66
43420;BME280;29017;51.514;-0.178;2024-03-07T06:21:18;101813.22;;;9.52;93.73
43420;BME280;29017;51.514;-0.178;2024-03-07T06:23:45;101811.91;;;9.47;94.31
43420;BME280;29017;51.514;-0.178;2024-03-07T06:26:14;101806.06;;;9.54;94.28
43420;BME280;29017;51.514;-0.178;2024-03-07T06:28:43;101816.31;;;9.57;93.84
43420;BME280;29017;51.514;-0.178;2024-03-07T06:31:11;101815.72;;;9.54;93.57
43420;BME280;29017;51.514;-0.178;2024-03-07T06:33:38;101815.00;;;9.52;93.77
43420;BME280;29017;51.514;-0.178;2024-03-07T06:36:05;101824.44;;;9.43;94.08
43420;BME280;29017;51.514;-0.178;2024-03-07T06:38:32;101820.41;;;9.39;94.20
43420;BME280;29017;51.514;-0.178;2024-03-07T06:40:59;101824.56;;;9.41;94.60
43420;BME280;29017;51.514;-0.178;2024-03-07T06:43:26;101815.72;;;9.42;94.13
43420;BME280;29017;51.514;-0.178;2024-03-07T06:45:53;101822.19;;;9.38;93.91
43420;BME280;29017;51.514;-0.178;2024-03-07T06:48:21;101822.88;;;9.40;93.93
43420;BME280;29017;51.514;-0.178;2024-03-07T06:50:48;101820.97;;;9.42;94.10
43420;BME280;29017;51.514;-0.178;2024-03-07T06:53:15;101827.06;;;9.43;94.48
43420;BME280;29017;51.514;-0.178;2024-03-07T06:55:42;101826.34;;;9.41;94.48
43420;BME280;29017;51.514;-0.178;2024-03-07T06:58:09;101823.72;;;9.41;94.74
43420;BME280;29017;51.514;-0.178;2024-03-07T07:00:37;101819.41;;;9.51;94.61
43420;BME280;29017;51.514;-0.178;2024-03-07T07:03:04;101819.31;;;9.53;94.84
43420;BME280;29017;51.514;-0.178;2024-03-07T07:05:31;101813.78;;;9.56;95.70
43420;BME280;29017;51.514;-0.178;2024-03-07T07:07:58;101815.72;;;9.54;94.45
43420;BME280;29017;51.514;-0.178;2024-03-07T07:10:25;101817.16;;;9.58;93.32
43420;BME280;29017;51.514;-0.178;2024-03-07T07:12:52;101812.94;;;9.55;92.75
43420;BME280;29017;51.514;-0.178;2024-03-07T07:15:21;101821.09;;;9.52;93.83
43420;BME280;29017;51.514;-0.178;2024-03-07T07:17:49;101819.56;;;9.50;93.79
43420;BME280;29017;51.514;-0.178;2024-03-07T07:20:17;101822.41;;;9.47;93.81
43420;BME280;29017;51.514;-0.178;2024-03-07T07:22:45;101818.72;;;9.49;93.84
43420;BME280;29017;51.514;-0.178;2024-03-07T07:25:22;101823.59;;;9.54;93.83
43420;BME280;29017;51.514;-0.178;2024-03-07T07:27:51;101818.81;;;9.59;92.72
43420;BME280;29017;51.514;-0.178;2024-03-07T07:30:19;101817.72;;;9.61;92.91
43420;BME280;29017;51.514;-0.178;2024-03-07T07:32:50;101813.88;;;9.65;92.37
43420;BME280;29017;51.514;-0.178;2024-03-07T07:35:17;101804.59;;;9.61;92.51
43420;BME280;29017;51.514;-0.178;2024-03-07T07:37:45;101804.94;;;9.68;92.34
43420;BME280;29017;51.514;-0.178;2024-03-07T07:40:13;101808.75;;;9.75;91.82
43420;BME280;29017;51.514;-0.178;2024-03-07T07:42:41;101809.00;;;9.72;91.61
43420;BME280;29017;51.514;-0.178;2024-03-07T07:45:09;101805.28;;;9.74;92.08
43420;BME280;29017;51.514;-0.178;2024-03-07T07:47:45;101802.53;;;9.76;91.67
43420;BME280;29017;51.514;-0.178;2024-03-07T07:50:13;101801.19;;;9.81;91.98
43420;BME280;29017;51.514;-0.178;2024-03-07T07:52:41;101803.34;;;9.87;92.13
43420;BME280;29017;51.514;-0.178;2024-03-07T07:55:09;101804.53;;;9.95;90.87
43420;BME280;29017;51.514;-0.178;2024-03-07T07:57:54;101803.06;;;9.91;91.59
43420;BME280;29017;51.514;-0.178;2024-03-07T08:00:22;101801.91;;;9.95;92.35
43420;BME280;29017;51.514;-0.178;2024-03-07T08:02:54;101798.66;;;9.91;92.17
43420;BME280;29017;51.514;-0.178;2024-03-07T08:05:22;101801.44;;;9.90;92.24
43420;BME280;29017;51.514;-0.178;2024-03-07T08:07:55;101794.84;;;9.95;92.67
43420;BME280;29017;51.514;-0.178;2024-03-07T08:10:24;101791.59;;;9.92;92.84
43420;BME280;29017;51.514;-0.178;2024-03-07T08:12:58;101787.75;;;9.96;92.70
43420;BME280;29017;51.514;-0.178;2024-03-07T08:15:30;101789.78;;;10.03;91.48
43420;BME280;29017;51.514;-0.178;2024-03-07T08:18:00;101791.56;;;10.03;91.87
43420;BME280;29017;51.514;-0.178;2024-03-07T08:20:27;101790.50;;;10.05;91.88
43420;BME280;29017;51.514;-0.178;2024-03-07T08:22:55;101795.88;;;10.04;91.43
43420;BME280;29017;51.514;-0.178;2024-03-07T08:25:23;101783.44;;;10.06;91.59
43420;BME280;29017;51.514;-0.178;2024-03-07T08:27:55;101776.97;;;10.10;91.58
43420;BME280;29017;51.514;-0.178;2024-03-07T08:30:23;101776.81;;;10.11;91.49
43420;BME280;29017;51.514;-0.178;2024-03-07T08:32:53;101775.69;;;10.04;91.92
43420;BME280;29017;51.514;-0.178;2024-03-07T08:35:21;101781.13;;;10.12;92.15
43420;BME280;29017;51.514;-0.178;2024-03-07T08:38:02;101770.88;;;10.20;92.38
43420;BME280;29017;51.514;-0.178;2024-03-07T08:40:29;101767.84;;;10.25;91.55
43420;BME280;29017;51.514;-0.178;2024-03-07T08:43:01;101763.78;;;10.21;91.57
43420;BME280;29017;51.514;-0.178;2024-03-07T08:45:29;101765.22;;;10.25;91.80
43420;BME280;29017;51.514;-0.178;2024-03-07T08:48:01;101771.06;;;10.28;91.74
43420;BME280;29017;51.514;-0.178;2024-03-07T08:50:31;101764.13;;;10.27;90.57
43420;BME280;29017;51.514;-0.178;2024-03-07T08:53:02;101756.78;;;10.31;90.65
43420;BME280;29017;51.514;-0.178;2024-03-07T08:55:31;101757.63;;;10.32;91.16
43420;BME280;29017;51.514;-0.178;2024-03-07T08:58:06;101755.53;;;10.25;90.96
43420;BME280;29017;51.514;-0.178;2024-03-07T09:00:35;101752.53;;;10.30;92.08
43420;BME280;29017;51.514;-0.178;2024-03-07T09:03:05;101757.28;;;10.36;91.48
43420;BME280;29017;51.514;-0.178;2024-03-07T09:05:38;101756.50;;;10.45;91.55
43420;BME280;29017;51.514;-0.178;2024-03-07T09:08:06;101747.38;;;10.49;90.52
43420;BME280;29017;51.514;-0.178;2024-03-07T09:10:34;101752.06;;;10.46;89.37
43420;BME280;29017;51.514;-0.178;2024-03-07T09:13:07;101743.78;;;10.50;89.60
43420;BME280;29017;51.514;-0.178;2024-03-07T09:15:45;101741.44;;;10.57;89.53
43420;BME280;29017;51.514;-0.178;2024-03-07T09:18:13;101737.63;;;10.61;88.08
43420;BME280;29017;51.514;-0.178;2024-03-07T09:20:40;101744.81;;;10.59;88.24
43420;BME280;29017;51.514;-0.178;2024-03-07T09:23:08;101735.94;;;10.60;88.27
43420;BME280;29017;51.514;-0.178;2024-03-07T09:25:35;101746.81;;;10.66;87.68
43420;BME280;29017;51.514;-0.178;2024-03-07T09:28:03;101751.06;;;10.67;86.71
43420;BME280;29017;51.514;-0.178;2024-03-07T09:30:30;101730.00;;;10.67;86.73
43420;BME280;29017;51.514;-0.178;2024-03-07T09:32:57;101734.44;;;10.67;87.42
43420;BME280;29017;51.514;-0.178;2024-03-07T09:35:24;101733.41;;;10.79;86.21
43420;BME280;29017;51.514;-0.178;2024-03-07T09:37:52;101735.06;;;10.80;86.66
43420;BME280;29017;51.514;-0.178;2024-03-07T09:40:21;101738.28;;;10.84;86.37
43420;BME280;29017;51.514;-0.178;2024-03-07T09:42:52;101728.25;;;10.78;86.05
43420;BME280;29017;51.514;-0.178;2024-03-07T09:45:28;101734.56;;;10.86;86.10
43420;BME280;29017;51.514;-0.178;2024-03-07T09:47:56;101740.50;;;10.88;86.31
43420;BME280;29017;51.514;-0.178;2024-03-07T09:50:26;101732.09;;;10.94;85.67
43420;BME280;29017;51.514;-0.178;2024-03-07T09:52:54;101737.78;;;10.99;85.19
43420;BME280;29017;51.514;-0.178;2024-03-07T09:55:21;101738.34;;;11.03;85.65
43420;BME280;29017;51.514;-0.178;2024-03-07T09:57:53;101733.38;;;11.09;85.83
43420;BME280;29017;51.514;-0.178;2024-03-07T10:00:24;101738.38;;;11.12;85.22
43420;BME280;29017;51.514;-0.178;2024-03-07T10:05:26;101725.78;;;11.16;85.40
43420;BME280;29017;51.514;-0.178;2024-03-07T10:07:55;101731.63;;;11.20;85.04
43420;BME280;29017;51.514;-0.178;2024-03-07T10:10:23;101721.22;;;11.28;85.23
43420;BME280;29017;51.514;-0.178;2024-03-07T10:12:56;101722.38;;;11.35;84.19
43420;BME280;29017;51.514;-0.178;2024-03-07T10:15:34;101722.06;;;11.38;83.62
43420;BME280;29017;51.514;-0.178;2024-03-07T10:18:06;101720.28;;;11.38;84.74
43420;BME280;29017;51.514;-0.178;2024-03-07T10:20:33;101724.59;;;11.39;84.04
43420;BME280;29017;51.514;-0.178;2024-03-07T10:23:02;101722.13;;;11.47;83.95
43420;BME280;29017;51.514;-0.178;2024-03-07T10:25:32;101717.94;;;11.45;83.55
43420;BME280;29017;51.514;-0.178;2024-03-07T10:28:04;101717.22;;;11.43;83.88
43420;BME280;29017;51.514;-0.178;2024-03-07T10:30:41;101714.88;;;11.40;83.75
43420;BME280;29017;51.514;-0.178;2024-03-07T10:33:08;101710.88;;;11.36;84.35
43420;BME280;29017;51.514;-0.178;2024-03-07T10:35:49;101715.16;;;11.37;84.88
43420;BME280;29017;51.514;-0.178;2024-03-07T10:38:20;101707.94;;;11.39;84.63
43420;BME280;29017;51.514;-0.178;2024-03-07T10:40:49;101698.38;;;11.38;84.69
43420;BME280;29017;51.514;-0.178;2024-03-07T10:43:21;101701.16;;;11.46;84.39
43420;BME280;29017;51.514;-0.178;2024-03-07T10:45:49;101701.44;;;11.43;83.46
43420;BME280;29017;51.514;-0.178;2024-03-07T10:48:25;101689.66;;;11.47;83.51
43420;BME280;29017;51.514;-0.178;2024-03-07T10:59:19;101684.81;;;11.52;84.93
43420;BME280;29017;51.514;-0.178;2024-03-07T11:01:49;101683.00;;;11.62;83.40
43420;BME280;29017;51.514;-0.178;2024-03-07T11:04:21;101670.38;;;11.66;83.53
43420;BME280;29017;51.514;-0.178;2024-03-07T11:06:56;101677.75;;;11.72;82.85
43420;BME280;29017;51.514;-0.178;2024-03-07T11:09:28;101676.81;;;11.73;83.58
43420;BME280;29017;51.514;-0.178;2024-03-07T11:12:00;101667.19;;;11.72;83.13
43420;BME280;29017;51.514;-0.178;2024-03-07T11:14:30;101669.41;;;11.67;83.10
43420;BME280;29017;51.514;-0.178;2024-03-07T11:16:58;101666.78;;;11.67;83.32
43420;BME280;29017;51.514;-0.178;2024-03-07T11:19:27;101654.69;;;11.64;83.64
43420;BME280;29017;51.514;-0.178;2024-03-07T11:21:55;101662.19;;;11.69;84.02
43420;BME280;29017;51.514;-0.178;2024-03-07T11:24:25;101658.59;;;11.70;83.36
43420;BME280;29017;51.514;-0.178;2024-03-07T11:26:56;101652.91;;;11.74;83.61
43420;BME280;29017;51.514;-0.178;2024-03-07T11:29:43;101651.53;;;11.80;83.28
43420;BME280;29017;51.514;-0.178;2024-03-07T11:32:11;101650.13;;;11.85;83.02
43420;BME280;29017;51.514;-0.178;2024-03-07T11:34:41;101649.88;;;11.88;82.54
43420;BME280;29017;51.514;-0.178;2024-03-07T11:37:09;101647.25;;;11.88;82.31
43420;BME280;29017;51.514;-0.178;2024-03-07T11:39:49;101638.75;;;11.94;81.59
43420;BME280;29017;51.514;-0.178;2024-03-07T11:44:49;101637.78;;;11.95;80.73
43420;BME280;29017;51.514;-0.178;2024-03-07T11:47:18;101630.25;;;12.00;80.40
43420;BME280;29017;51.514;-0.178;2024-03-07T11:49:45;101631.63;;;12.05;80.61
43420;BME280;29017;51.514;-0.178;2024-03-07T11:52:16;101625.00;;;12.00;79.58
43420;BME280;29017;51.514;-0.178;2024-03-07T11:54:43;101628.75;;;11.98;79.96
43420;BME280;29017;51.514;-0.178;2024-03-07T11:57:16;101615.41;;;11.99;80.01
43420;BME280;29017;51.514;-0.178;2024-03-07T11:59:47;101611.66;;;12.02;80.20
43420;BME280;29017;51.514;-0.178;2024-03-07T12:02:19;101612.50;;;12.03;80.11
43420;BME280;29017;51.514;-0.178;2024-03-07T12:04:49;101599.28;;;12.12;78.42
43420;BME280;29017;51.514;-0.178;2024-03-07T12:07:17;101604.44;;;12.14;78.59
43420;BME280;29017;51.514;-0.178;2024-03-07T12:09:49;101582.16;;;12.26;75.60
43420;BME280;29017;51.514;-0.178;2024-03-07T12:12:22;101589.63;;;12.30;74.86
43420;BME280;29017;51.514;-0.178;2024-03-07T12:14:51;101588.06;;;12.37;75.26
43420;BME280;29017;51.514;-0.178;2024-03-07T12:17:19;101582.75;;;12.47;73.58
43420;BME280;29017;51.514;-0.178;2024-03-07T12:20:05;101578.84;;;12.51;73.22
43420;BME280;29017;51.514;-0.178;2024-03-07T12:22:52;101572.59;;;12.52;73.88
43420;BME280;29017;51.514;-0.178;2024-03-07T12:25:23;101572.53;;;12.62;72.92
43420;BME280;29017;51.514;-0.178;2024-03-07T12:30:32;101565.19;;;12.56;73.38
43420;BME280;29017;51.514;-0.178;2024-03-07T12:33:02;101561.78;;;12.46;72.63
43420;BME280;29017;51.514;-0.178;2024-03-07T12:35:37;101548.53;;;12.28;72.83
43420;BME280;29017;51.514;-0.178;2024-03-07T12:38:08;101557.56;;;12.25;73.65
43420;BME280;29017;51.514;-0.178;2024-03-07T12:40:37;101548.94;;;12.33;73.05
43420;BME280;29017;51.514;-0.178;2024-03-07T12:43:19;101550.44;;;12.35;72.40
43420;BME280;29017;51.514;-0.178;2024-03-07T12:45:48;101557.78;;;12.41;71.67
43420;BME280;29017;51.514;-0.178;2024-03-07T12:48:16;101551.91;;;12.48;71.52
43420;BME280;29017;51.514;-0.178;2024-03-07T12:50:47;101548.69;;;12.54;70.33
43420;BME280;29017;51.514;-0.178;2024-03-07T12:53:17;101543.94;;;12.57;70.11
43420;BME280;29017;51.514;-0.178;2024-03-07T12:55:45;101536.53;;;12.61;69.87
43420;BME280;29017;51.514;-0.178;2024-03-07T12:58:11;101541.75;;;12.70;70.26
43420;BME280;29017;51.514;-0.178;2024-03-07T13:00:41;101538.53;;;12.76;68.53
43420;BME280;29017;51.514;-0.178;2024-03-07T13:03:08;101534.09;;;12.77;68.00
43420;BME280;29017;51.514;-0.178;2024-03-07T13:05:38;101536.47;;;12.70;69.10
43420;BME280;29017;51.514;-0.178;2024-03-07T13:08:14;101534.53;;;12.72;68.83
43420;BME280;29017;51.514;-0.178;2024-03-07T13:10:42;101531.38;;;12.69;68.28